sensor_id;sensor_type;location;lat;lon;timestamp;pressure;altitude;pressure_sealevel;temperature;humidity
61205;BME280;47068;55.780;37.520;2023-12-07T00:00:28;101842.19;;;-5.96;71.05
61205;BME280;47068;55.780;37.520;2023-12-07T00:02:53;101823.28;;;-6.21;71.34
61205;BME280;47068;55.780;37.520;2023-12-07T00:05:19;101837.94;;;-6.12;72.71
61205;BME280;47068;55.780;37.520;2023-12-07T00:07:44;101842.28;;;-6.22;71.40
61205;BME280;47068;55.780;37.520;2023-12-07T00:10:10;101842.38;;;-6.48;71.10
61205;BME280;47068;55.780;37.520;2023-12-07T00:12:35;101826.03;;;-6.69;71.83
61205;BME280;47068;55.780;37.520;2023-12-07T00:15:01;101823.47;;;-6.69;71.89
61205;BME280;47068;55.780;37.520;2023-12-07T00:17:28;101832.97;;;-6.71;71.56
61205;BME280;47068;55.780;37.520;2023-12-07T00:19:53;101833.00;;;-6.85;71.82
61205;BME280;47068;55.780;37.520;2023-12-07T00:22:19;101850.25;;;-6.83;71.74
61205;BME280;47068;55.780;37.520;2023-12-07T00:24:45;101829.56;;;-7.04;72.53
61205;BME280;47068;55.780;37.520;2023-12-07T00:27:11;101827.81;;;-7.05;73.36
61205;BME280;47068;55.780;37.520;2023-12-07T00:29:39;101820.06;;;-6.96;75.15
61205;BME280;47068;55.780;37.520;2023-12-07T00:32:05;101825.19;;;-6.64;75.17
61205;BME280;47068;55.780;37.520;2023-12-07T00:34:30;101856.19;;;-6.41;73.71
61205;BME280;47068;55.780;37.520;2023-12-07T00:36:56;101840.72;;;-6.65;71.99
61205;BME280;47068;55.780;37.520;2023-12-07T00:39:21;101831.22;;;-6.69;72.67
61205;BME280;47068;55.780;37.520;2023-12-07T00:41:47;101857.06;;;-6.48;74.01
61205;BME280;47068;55.780;37.520;2023-12-07T00:44:13;101853.63;;;-6.44;73.98
61205;BME280;47068;55.780;37.520;2023-12-07T00:46:39;101860.53;;;-6.43;72.64
61205;BME280;47068;55.780;37.520;2023-12-07T00:49:05;101860.53;;;-6.55;72.18
61205;BME280;47068;55.780;37.520;2023-12-07T00:51:30;101855.38;;;-6.58;73.08
61205;BME280;47068;55.780;37.520;2023-12-07T00:53:56;101861.44;;;-6.59;73.00
61205;BME280;47068;55.780;37.520;2023-12-07T00:56:21;101832.13;;;-6.87;71.28
61205;BME280;47068;55.780;37.520;2023-12-07T00:58:47;101857.16;;;-6.79;73.21
61205;BME280;47068;55.780;37.520;2023-12-07T01:01:12;101861.44;;;-6.84;71.88
61205;BME280;47068;55.780;37.520;2023-12-07T01:03:38;101874.41;;;-6.85;72.76
61205;BME280;47068;55.780;37.520;2023-12-07T01:06:06;101865.78;;;-7.01;72.34
61205;BME280;47068;55.780;37.520;2023-12-07T01:08:31;101866.66;;;-7.02;74.27
61205;BME280;47068;55.780;37.520;2023-12-07T01:10:57;101870.09;;;-6.92;73.79
61205;BME280;47068;55.780;37.520;2023-12-07T01:13:22;101863.19;;;-6.89;73.98
61205;BME280;47068;55.780;37.520;2023-12-07T01:15:49;101864.06;;;-6.93;73.72
61205;BME280;47068;55.780;37.520;2023-12-07T01:18:15;101868.34;;;-6.98;73.35
61205;BME280;47068;55.780;37.520;2023-12-07T01:20:40;101864.94;;;-7.07;73.05
61205;BME280;47068;55.780;37.520;2023-12-07T01:23:06;101878.72;;;-7.11;73.03
61205;BME280;47068;55.780;37.520;2023-12-07T01:25:34;101847.69;;;-7.27;72.75
61205;BME280;47068;55.780;37.520;2023-12-07T01:27:59;101872.69;;;-7.13;73.33
61205;BME280;47068;55.780;37.520;2023-12-07T01:30:25;101879.56;;;-7.05;72.70
61205;BME280;47068;55.780;37.520;2023-12-07T01:32:50;101879.59;;;-7.09;72.60
61205;BME280;47068;55.780;37.520;2023-12-07T01:35:16;101885.63;;;-7.15;73.01
61205;BME280;47068;55.780;37.520;2023-12-07T01:37:41;101886.47;;;-7.22;73.49
61205;BME280;47068;55.780;37.520;2023-12-07T01:40:07;101889.94;;;-7.11;74.63
61205;BME280;47068;55.780;37.520;2023-12-07T01:42:39;101895.97;;;-7.01;74.43
61205;BME280;47068;55.780;37.520;2023-12-07T01:45:05;101897.69;;;-6.97;73.87
61205;BME280;47068;55.780;37.520;2023-12-07T01:47:32;101896.81;;;-7.16;72.74
61205;BME280;47068;55.780;37.520;2023-12-07T01:49:59;101893.38;;;-7.24;72.49
61205;BME280;47068;55.780;37.520;2023-12-07T01:52:27;101890.78;;;-7.24;73.63
61205;BME280;47068;55.780;37.520;2023-12-07T01:54:53;101898.56;;;-7.06;74.72
61205;BME280;47068;55.780;37.520;2023-12-07T01:57:19;101908.03;;;-6.90;74.73
61205;BME280;47068;55.780;37.520;2023-12-07T01:59:45;101893.38;;;-6.91;74.82
61205;BME280;47068;55.780;37.520;2023-12-07T02:02:10;101592.69;;;-8.67;73.33
61205;BME280;47068;55.780;37.520;2023-12-07T02:04:36;101902.00;;;-6.95;73.32
61205;BME280;47068;55.780;37.520;2023-12-07T02:07:03;101898.56;;;-6.97;73.09
61205;BME280;47068;55.780;37.520;2023-12-07T02:09:29;101912.38;;;-7.01;71.87
61205;BME280;47068;55.780;37.520;2023-12-07T02:11:55;101911.47;;;-7.12;71.52
61205;BME280;47068;55.780;37.520;2023-12-07T02:14:20;101906.31;;;-7.21;72.08
61205;BME280;47068;55.780;37.520;2023-12-07T02:16:50;101914.06;;;-7.17;73.69
61205;BME280;47068;55.780;37.520;2023-12-07T02:19:42;101916.66;;;-6.97;74.40
61205;BME280;47068;55.780;37.520;2023-12-07T02:22:17;101928.75;;;-7.09;71.68
61205;BME280;47068;55.780;37.520;2023-12-07T02:25:09;101916.66;;;-7.29;72.00
61205;BME280;47068;55.780;37.520;2023-12-07T02:27:38;101938.19;;;-7.37;72.74
61205;BME280;47068;55.780;37.520;2023-12-07T02:30:06;101922.69;;;-7.28;73.93
61205;BME280;47068;55.780;37.520;2023-12-07T02:32:32;101921.81;;;-7.35;73.65
61205;BME280;47068;55.780;37.520;2023-12-07T02:34:57;101935.63;;;-7.28;73.74
61205;BME280;47068;55.780;37.520;2023-12-07T02:37:27;101908.84;;;-7.45;72.43
61205;BME280;47068;55.780;37.520;2023-12-07T02:39:53;101920.03;;;-7.56;73.13
61205;BME280;47068;55.780;37.520;2023-12-07T02:42:20;101895.03;;;-7.69;72.38
61205;BME280;47068;55.780;37.520;2023-12-07T02:44:49;101926.94;;;-7.62;72.40
61205;BME280;47068;55.780;37.520;2023-12-07T02:47:15;101916.50;;;-7.89;72.61
61205;BME280;47068;55.780;37.520;2023-12-07T02:49:40;101929.41;;;-7.85;72.74
61205;BME280;47068;55.780;37.520;2023-12-07T02:52:06;101908.72;;;-7.91;73.53
61205;BME280;47068;55.780;37.520;2023-12-07T02:54:31;101930.31;;;-7.72;74.52
61205;BME280;47068;55.780;37.520;2023-12-07T02:56:57;101932.97;;;-7.52;74.47
61205;BME280;47068;55.780;37.520;2023-12-07T02:59:22;101934.69;;;-7.62;73.38
61205;BME280;47068;55.780;37.520;2023-12-07T03:01:47;101932.97;;;-7.62;73.55
61205;BME280;47068;55.780;37.520;2023-12-07T03:04:13;101933.81;;;-7.58;72.86
61205;BME280;47068;55.780;37.520;2023-12-07T03:06:38;101943.25;;;-7.72;72.31
61205;BME280;47068;55.780;37.520;2023-12-07T03:09:04;101948.44;;;-7.71;72.80
61205;BME280;47068;55.780;37.520;2023-12-07T03:11:29;101944.94;;;-7.79;72.75
61205;BME280;47068;55.780;37.520;2023-12-07T03:13:54;101949.22;;;-7.90;72.61
61205;BME280;47068;55.780;37.520;2023-12-07T03:16:20;101955.28;;;-7.83;73.47
61205;BME280;47068;55.780;37.520;2023-12-07T03:18:45;101957.06;;;-7.69;74.73
61205;BME280;47068;55.780;37.520;2023-12-07T03:21:11;101960.53;;;-7.59;73.66
61205;BME280;47068;55.780;37.520;2023-12-07T03:23:37;101966.59;;;-7.54;73.12
61205;BME280;47068;55.780;37.520;2023-12-07T03:26:03;101962.28;;;-7.50;73.15
61205;BME280;47068;55.780;37.520;2023-12-07T03:28:28;101957.94;;;-7.64;72.30
61205;BME280;47068;55.780;37.520;2023-12-07T03:30:53;101965.69;;;-7.59;72.32
61205;BME280;47068;55.780;37.520;2023-12-07T03:33:19;101959.63;;;-7.70;72.67
61205;BME280;47068;55.780;37.520;2023-12-07T03:35:44;101978.63;;;-7.58;73.22
61205;BME280;47068;55.780;37.520;2023-12-07T03:38:10;101971.72;;;-7.62;72.51
61205;BME280;47068;55.780;37.520;2023-12-07T03:40:35;101979.53;;;-7.49;73.06
61205;BME280;47068;55.780;37.520;2023-12-07T03:43:01;101984.72;;;-7.43;72.51
61205;BME280;47068;55.780;37.520;2023-12-07T03:45:28;101900.97;;;-7.91;72.44
61205;BME280;47068;55.780;37.520;2023-12-07T03:47:53;101984.66;;;-7.52;72.21
61205;BME280;47068;55.780;37.520;2023-12-07T03:50:19;101961.31;;;-7.80;71.66
61205;BME280;47068;55.780;37.520;2023-12-07T03:52:44;101987.25;;;-7.62;71.87
61205;BME280;47068;55.780;37.520;2023-12-07T03:55:10;101979.38;;;-7.80;71.79
61205;BME280;47068;55.780;37.520;2023-12-07T03:57:36;101991.38;;;-7.94;71.64
61205;BME280;47068;55.780;37.520;2023-12-07T04:00:01;101987.91;;;-8.02;72.32
61205;BME280;47068;55.780;37.520;2023-12-07T04:02:29;101974.09;;;-8.06;72.11
61205;BME280;47068;55.780;37.520;2023-12-07T04:04:58;101975.84;;;-8.00;72.23
61205;BME280;47068;55.780;37.520;2023-12-07T04:07:27;102000.88;;;-7.93;71.75
61205;BME280;47068;55.780;37.520;2023-12-07T04:09:53;102006.03;;;-7.91;72.06
61205;BME280;47068;55.780;37.520;2023-12-07T04:12:19;102006.03;;;-7.91;72.37
61205;BME280;47068;55.780;37.520;2023-12-07T04:14:45;102007.78;;;-7.90;71.32
61205;BME280;47068;55.780;37.520;2023-12-07T04:17:10;102008.63;;;-7.96;71.55
61205;BME280;47068;55.780;37.520;2023-12-07T04:19:36;102001.72;;;-7.94;71.83
61205;BME280;47068;55.780;37.520;2023-12-07T04:22:01;102005.16;;;-7.98;72.54
61205;BME280;47068;55.780;37.520;2023-12-07T04:24:27;101998.28;;;-7.93;72.45
61205;BME280;47068;55.780;37.520;2023-12-07T04:26:52;101982.66;;;-8.14;71.80
61205;BME280;47068;55.780;37.520;2023-12-07T04:29:18;102007.53;;;-8.30;72.21
61205;BME280;47068;55.780;37.520;2023-12-07T04:31:43;102004.03;;;-8.41;72.17
61205;BME280;47068;55.780;37.520;2023-12-07T04:34:09;101988.53;;;-8.46;73.28
61205;BME280;47068;55.780;37.520;2023-12-07T04:36:35;102004.03;;;-8.44;72.80
61205;BME280;47068;55.780;37.520;2023-12-07T04:39:00;101983.38;;;-8.44;73.46
61205;BME280;47068;55.780;37.520;2023-12-07T04:41:26;101960.84;;;-8.65;73.02
61205;BME280;47068;55.780;37.520;2023-12-07T04:43:51;102012.72;;;-8.31;72.83
61205;BME280;47068;55.780;37.520;2023-12-07T04:46:16;101990.28;;;-8.39;73.16
61205;BME280;47068;55.780;37.520;2023-12-07T04:48:42;102013.56;;;-8.26;72.91
61205;BME280;47068;55.780;37.520;2023-12-07T04:51:07;102019.69;;;-8.17;72.83
61205;BME280;47068;55.780;37.520;2023-12-07T04:53:33;102013.66;;;-8.13;71.96
61205;BME280;47068;55.780;37.520;2023-12-07T04:55:58;102020.47;;;-8.25;71.91
61205;BME280;47068;55.780;37.520;2023-12-07T04:58:24;102003.22;;;-8.29;73.52
61205;BME280;47068;55.780;37.520;2023-12-07T05:00:50;102022.31;;;-8.06;73.33
61205;BME280;47068;55.780;37.520;2023-12-07T05:03:15;102027.41;;;-8.15;71.85
61205;BME280;47068;55.780;37.520;2023-12-07T05:05:41;102022.22;;;-8.24;72.18
61205;BME280;47068;55.780;37.520;2023-12-07T05:08:06;102030.75;;;-8.34;72.90
61205;BME280;47068;55.780;37.520;2023-12-07T05:10:32;102013.53;;;-8.39;73.41
61205;BME280;47068;55.780;37.520;2023-12-07T05:12:57;102030.78;;;-8.31;73.32
61205;BME280;47068;55.780;37.520;2023-12-07T05:15:23;102029.91;;;-8.29;73.05
61205;BME280;47068;55.780;37.520;2023-12-07T05:17:49;102016.97;;;-8.37;72.71
61205;BME280;47068;55.780;37.520;2023-12-07T05:20:15;102032.47;;;-8.37;73.40
61205;BME280;47068;55.780;37.520;2023-12-07T05:22:41;102042.94;;;-8.17;74.40
61205;BME280;47068;55.780;37.520;2023-12-07T05:25:06;102023.09;;;-8.19;73.46
61205;BME280;47068;55.780;37.520;2023-12-07T05:27:32;102050.81;;;-7.96;73.64
61205;BME280;47068;55.780;37.520;2023-12-07T05:29:57;102044.75;;;-7.99;72.91
61205;BME280;47068;55.780;37.520;2023-12-07T05:32:23;102053.34;;;-8.03;72.05
61205;BME280;47068;55.780;37.520;2023-12-07T05:34:48;102051.63;;;-8.04;72.58
61205;BME280;47068;55.780;37.520;2023-12-07T05:37:15;102023.16;;;-8.12;73.41
61205;BME280;47068;55.780;37.520;2023-12-07T05:39:41;102020.53;;;-8.13;71.95
61205;BME280;47068;55.780;37.520;2023-12-07T05:42:06;102043.91;;;-7.95;72.35
61205;BME280;47068;55.780;37.520;2023-12-07T05:44:31;102060.31;;;-7.90;72.02
61205;BME280;47068;55.780;37.520;2023-12-07T05:46:57;102055.91;;;-8.06;71.87
61205;BME280;47068;55.780;37.520;2023-12-07T05:49:23;102037.69;;;-8.30;71.99
61205;BME280;47068;55.780;37.520;2023-12-07T05:51:48;102055.75;;;-8.26;72.27
61205;BME280;47068;55.780;37.520;2023-12-07T05:54:14;102078.28;;;-8.10;71.95
61205;BME280;47068;55.780;37.520;2023-12-07T05:56:40;102063.56;;;-8.18;71.66
61205;BME280;47068;55.780;37.520;2023-12-07T05:59:06;102073.84;;;-8.21;71.99
61205;BME280;47068;55.780;37.520;2023-12-07T06:01:31;102060.72;;;-8.53;71.18
61205;BME280;47068;55.780;37.520;2023-12-07T06:03:58;102085.72;;;-8.49;71.75
61205;BME280;47068;55.780;37.520;2023-12-07T06:06:23;102078.72;;;-8.61;72.61
61205;BME280;47068;55.780;37.520;2023-12-07T06:08:49;101974.09;;;-9.19;72.68
61205;BME280;47068;55.780;37.520;2023-12-07T06:11:14;102086.66;;;-8.41;73.00
61205;BME280;47068;55.780;37.520;2023-12-07T06:13:40;102077.13;;;-8.47;72.23
61205;BME280;47068;55.780;37.520;2023-12-07T06:16:06;102093.53;;;-8.42;72.54
61205;BME280;47068;55.780;37.520;2023-12-07T06:18:31;102093.44;;;-8.49;71.63
61205;BME280;47068;55.780;37.520;2023-12-07T06:20:57;102099.53;;;-8.43;71.62
61205;BME280;47068;55.780;37.520;2023-12-07T06:23:23;102100.47;;;-8.38;72.07
61205;BME280;47068;55.780;37.520;2023-12-07T06:25:48;102102.94;;;-8.47;71.52
61205;BME280;47068;55.780;37.520;2023-12-07T06:28:14;102106.28;;;-8.58;71.98
61205;BME280;47068;55.780;37.520;2023-12-07T06:30:40;102101.16;;;-8.54;72.20
61205;BME280;47068;55.780;37.520;2023-12-07T06:33:05;102101.22;;;-8.51;72.48
61205;BME280;47068;55.780;37.520;2023-12-07T06:35:31;102082.13;;;-8.65;72.36
61205;BME280;47068;55.780;37.520;2023-12-07T06:37:56;102096.94;;;-8.43;72.44
61205;BME280;47068;55.780;37.520;2023-12-07T06:40:22;102103.03;;;-8.38;71.65
61205;BME280;47068;55.780;37.520;2023-12-07T06:42:47;102102.16;;;-8.37;72.32
61205;BME280;47068;55.780;37.520;2023-12-07T06:45:13;102101.22;;;-8.51;71.40
61205;BME280;47068;55.780;37.520;2023-12-07T06:47:40;102078.66;;;-8.67;71.44
61205;BME280;47068;55.780;37.520;2023-12-07T06:50:08;102068.25;;;-8.79;72.03
61205;BME280;47068;55.780;37.520;2023-12-07T06:52:37;102096.75;;;-8.64;71.84
61205;BME280;47068;55.780;37.520;2023-12-07T06:55:02;102085.59;;;-8.64;71.93
61205;BME280;47068;55.780;37.520;2023-12-07T06:57:28;102096.88;;;-8.53;71.77
61205;BME280;47068;55.780;37.520;2023-12-07T06:59:53;102044.22;;;-8.70;72.49
61205;BME280;47068;55.780;37.520;2023-12-07T07:02:19;102089.16;;;-8.52;70.87
61205;BME280;47068;55.780;37.520;2023-12-07T07:04:44;102100.28;;;-8.54;71.45
61205;BME280;47068;55.780;37.520;2023-12-07T07:07:10;102112.25;;;-8.62;71.20
61205;BME280;47068;55.780;37.520;2023-12-07T07:09:35;102089.88;;;-8.65;71.66
61205;BME280;47068;55.780;37.520;2023-12-07T07:12:01;102107.09;;;-8.65;71.55
61205;BME280;47068;55.780;37.520;2023-12-07T07:14:27;102114.06;;;-8.54;71.60
61205;BME280;47068;55.780;37.520;2023-12-07T07:16:52;102105.53;;;-8.47;70.90
61205;BME280;47068;55.780;37.520;2023-12-07T07:19:18;102103.66;;;-8.63;70.06
61205;BME280;47068;55.780;37.520;2023-12-07T07:21:43;102107.94;;;-8.65;70.86
61205;BME280;47068;55.780;37.520;2023-12-07T07:24:09;102068.22;;;-8.78;71.21
61205;BME280;47068;55.780;37.520;2023-12-07T07:26:34;102106.31;;;-8.54;70.82
61205;BME280;47068;55.780;37.520;2023-12-07T07:29:00;102097.00;;;-8.38;71.47
61205;BME280;47068;55.780;37.520;2023-12-07T07:31:25;102110.75;;;-8.44;70.91
61205;BME280;47068;55.780;37.520;2023-12-07T07:33:51;102114.16;;;-8.46;70.57
61205;BME280;47068;55.780;37.520;2023-12-07T07:36:17;102113.09;;;-8.65;70.38
61205;BME280;47068;55.780;37.520;2023-12-07T07:38:43;102101.16;;;-8.54;70.88
61205;BME280;47068;55.780;37.520;2023-12-07T07:41:10;102114.19;;;-8.40;69.74
61205;BME280;47068;55.780;37.520;2023-12-07T07:43:36;102114.91;;;-8.55;69.44
61205;BME280;47068;55.780;37.520;2023-12-07T07:46:02;102117.47;;;-8.58;70.80
61205;BME280;47068;55.780;37.520;2023-12-07T07:48:28;102121.72;;;-8.63;70.61
61205;BME280;47068;55.780;37.520;2023-12-07T07:50:53;102119.13;;;-8.64;70.92
61205;BME280;47068;55.780;37.520;2023-12-07T07:53:19;102113.09;;;-8.65;70.80
61205;BME280;47068;55.780;37.520;2023-12-07T07:55:44;102128.72;;;-8.50;70.14
61205;BME280;47068;55.780;37.520;2023-12-07T07:58:09;102111.44;;;-8.57;70.22
61205;BME280;47068;55.780;37.520;2023-12-07T08:00:35;102121.91;;;-8.42;70.12
61205;BME280;47068;55.780;37.520;2023-12-07T08:03:01;102117.31;;;-8.73;68.47
61205;BME280;47068;55.780;37.520;2023-12-07T08:05:27;102130.28;;;-8.67;70.54
61205;BME280;47068;55.780;37.520;2023-12-07T08:07:52;102129.47;;;-8.61;70.33
61205;BME280;47068;55.780;37.520;2023-12-07T08:10:18;102131.19;;;-8.65;69.17
61205;BME280;47068;55.780;37.520;2023-12-07T08:12:43;102131.09;;;-8.72;69.28
61205;BME280;47068;55.780;37.520;2023-12-07T08:15:10;102135.44;;;-8.67;68.88
61205;BME280;47068;55.780;37.520;2023-12-07T08:17:42;102124.97;;;-8.82;69.65
61205;BME280;47068;55.780;37.520;2023-12-07T08:20:09;102135.41;;;-8.70;69.68
61205;BME280;47068;55.780;37.520;2023-12-07T08:22:43;102125.13;;;-8.64;68.92
61205;BME280;47068;55.780;37.520;2023-12-07T08:25:10;102135.50;;;-8.61;68.18
61205;BME280;47068;55.780;37.520;2023-12-07T08:27:39;102135.50;;;-8.61;68.04
61205;BME280;47068;55.780;37.520;2023-12-07T08:30:05;102137.19;;;-8.63;69.01
61205;BME280;47068;55.780;37.520;2023-12-07T08:32:31;102115.69;;;-8.62;69.53
61205;BME280;47068;55.780;37.520;2023-12-07T08:34:57;102127.94;;;-8.43;70.45
61205;BME280;47068;55.780;37.520;2023-12-07T08:37:22;102081.22;;;-8.68;68.84
61205;BME280;47068;55.780;37.520;2023-12-07T08:39:48;102127.03;;;-8.51;69.02
61205;BME280;47068;55.780;37.520;2023-12-07T08:42:14;102129.63;;;-8.48;70.12
61205;BME280;47068;55.780;37.520;2023-12-07T08:44:39;102095.88;;;-8.67;69.70
61205;BME280;47068;55.780;37.520;2023-12-07T08:47:05;102113.13;;;-8.62;68.45
61205;BME280;47068;55.780;37.520;2023-12-07T08:49:31;102094.84;;;-8.82;67.89
61205;BME280;47068;55.780;37.520;2023-12-07T08:51:57;102069.81;;;-8.93;67.80
61205;BME280;47068;55.780;37.520;2023-12-07T08:54:22;102121.81;;;-8.54;68.30
61205;BME280;47068;55.780;37.520;2023-12-07T08:56:48;102102.69;;;-8.71;68.81
61205;BME280;47068;55.780;37.520;2023-12-07T08:59:13;102123.53;;;-8.53;68.60
61205;BME280;47068;55.780;37.520;2023-12-07T09:01:39;102120.97;;;-8.53;67.88
61205;BME280;47068;55.780;37.520;2023-12-07T09:04:05;102120.97;;;-8.50;68.59
61205;BME280;47068;55.780;37.520;2023-12-07T09:06:30;102120.16;;;-8.47;68.11
61205;BME280;47068;55.780;37.520;2023-12-07T09:08:56;102120.19;;;-8.46;68.98
61205;BME280;47068;55.780;37.520;2023-12-07T09:11:21;102111.56;;;-8.43;69.39
61205;BME280;47068;55.780;37.520;2023-12-07T09:13:47;102118.59;;;-8.25;68.56
61205;BME280;47068;55.780;37.520;2023-12-07T09:16:12;102104.91;;;-8.14;69.76
61205;BME280;47068;55.780;37.520;2023-12-07T09:18:38;102102.56;;;-7.83;69.36
61205;BME280;47068;55.780;37.520;2023-12-07T09:21:04;102106.97;;;-7.69;67.41
61205;BME280;47068;55.780;37.520;2023-12-07T09:23:29;102106.09;;;-7.71;68.37
61205;BME280;47068;55.780;37.520;2023-12-07T09:25:55;102112.19;;;-7.53;68.63
61205;BME280;47068;55.780;37.520;2023-12-07T09:28:20;102115.56;;;-7.67;67.35
61205;BME280;47068;55.780;37.520;2023-12-07T09:30:46;102108.59;;;-7.80;66.83
61205;BME280;47068;55.780;37.520;2023-12-07T09:33:12;102085.22;;;-7.98;66.76
61205;BME280;47068;55.780;37.520;2023-12-07T09:35:39;102098.25;;;-7.83;67.74
61205;BME280;47068;55.780;37.520;2023-12-07T09:38:04;102085.44;;;-7.65;68.86
61205;BME280;47068;55.780;37.520;2023-12-07T09:40:30;102084.72;;;-7.36;69.68
61205;BME280;47068;55.780;37.520;2023-12-07T09:42:56;102100.38;;;-7.03;68.65
61205;BME280;47068;55.780;37.520;2023-12-07T09:45:21;102109.00;;;-7.07;66.59
61205;BME280;47068;55.780;37.520;2023-12-07T09:47:52;102102.91;;;-7.17;66.91
61205;BME280;47068;55.780;37.520;2023-12-07T09:50:24;102108.94;;;-7.16;65.75
61205;BME280;47068;55.780;37.520;2023-12-07T09:52:52;102096.91;;;-7.14;66.01
61205;BME280;47068;55.780;37.520;2023-12-07T09:55:18;102096.91;;;-7.14;66.94
61205;BME280;47068;55.780;37.520;2023-12-07T09:57:45;102102.94;;;-7.10;67.44
61205;BME280;47068;55.780;37.520;2023-12-07T10:00:12;102116.72;;;-7.16;65.72
61205;BME280;47068;55.780;37.520;2023-12-07T10:02:40;102101.88;;;-7.53;65.33
61205;BME280;47068;55.780;37.520;2023-12-07T10:05:10;102101.81;;;-7.66;65.53
61205;BME280;47068;55.780;37.520;2023-12-07T10:07:40;102124.06;;;-7.89;65.73
61205;BME280;47068;55.780;37.520;2023-12-07T10:10:06;102105.91;;;-7.97;66.74
61205;BME280;47068;55.780;37.520;2023-12-07T10:12:33;102086.88;;;-8.09;68.33
61205;BME280;47068;55.780;37.520;2023-12-07T10:15:11;102111.19;;;-7.83;68.87
61205;BME280;47068;55.780;37.520;2023-12-07T10:20:23;102081.88;;;-7.80;69.16
61205;BME280;47068;55.780;37.520;2023-12-07T10:23:07;102108.78;;;-7.52;69.14
61205;BME280;47068;55.780;37.520;2023-12-07T10:25:35;102108.81;;;-7.43;67.63
61205;BME280;47068;55.780;37.520;2023-12-07T10:28:01;102101.91;;;-7.49;67.81
61205;BME280;47068;55.780;37.520;2023-12-07T10:30:32;102115.59;;;-7.65;67.45
61205;BME280;47068;55.780;37.520;2023-12-07T10:32:57;102119.06;;;-7.62;68.49
61205;BME280;47068;55.780;37.520;2023-12-07T10:35:23;102117.13;;;-7.93;67.13
61205;BME280;47068;55.780;37.520;2023-12-07T10:37:48;102111.06;;;-7.98;67.42
61205;BME280;47068;55.780;37.520;2023-12-07T10:40:14;102123.09;;;-8.03;67.97
61205;BME280;47068;55.780;37.520;2023-12-07T10:42:41;102112.69;;;-8.11;68.31
61205;BME280;47068;55.780;37.520;2023-12-07T10:45:07;102109.13;;;-8.26;67.90
61205;BME280;47068;55.780;37.520;2023-12-07T10:47:37;102115.97;;;-8.28;68.25
61205;BME280;47068;55.780;37.520;2023-12-07T10:50:07;102120.34;;;-8.23;69.44
61205;BME280;47068;55.780;37.520;2023-12-07T10:52:52;102120.47;;;-8.06;70.10
61205;BME280;47068;55.780;37.520;2023-12-07T10:55:22;102129.81;;;-8.23;68.85
61205;BME280;47068;55.780;37.520;2023-12-07T10:57:55;102129.78;;;-8.25;69.36
61205;BME280;47068;55.780;37.520;2023-12-07T11:00:21;102129.06;;;-8.10;71.15
61205;BME280;47068;55.780;37.520;2023-12-07T11:02:53;102130.81;;;-8.09;69.11
61205;BME280;47068;55.780;37.520;2023-12-07T11:05:18;102127.22;;;-8.25;67.77
61205;BME280;47068;55.780;37.520;2023-12-07T11:07:55;102129.88;;;-8.14;69.31
61205;BME280;47068;55.780;37.520;2023-12-07T11:10:27;102125.56;;;-8.15;69.03
61205;BME280;47068;55.780;37.520;2023-12-07T11:13:02;102124.72;;;-8.14;69.76
61205;BME280;47068;55.780;37.520;2023-12-07T11:15:32;102120.50;;;-8.03;69.76
61205;BME280;47068;55.780;37.520;2023-12-07T11:17:58;102127.47;;;-7.93;69.48
61205;BME280;47068;55.780;37.520;2023-12-07T11:20:40;102129.13;;;-8.04;68.63
61205;BME280;47068;55.780;37.520;2023-12-07T11:23:10;102134.03;;;-8.34;67.67
61205;BME280;47068;55.780;37.520;2023-12-07T11:25:36;102130.50;;;-8.46;69.70
61205;BME280;47068;55.780;37.520;2023-12-07T11:28:02;102129.72;;;-8.39;70.23
61205;BME280;47068;55.780;37.520;2023-12-07T11:30:31;102133.22;;;-8.30;70.94
61205;BME280;47068;55.780;37.520;2023-12-07T11:32:57;102131.50;;;-8.27;70.65
61205;BME280;47068;55.780;37.520;2023-12-07T11:35:23;102116.88;;;-8.31;70.12
61205;BME280;47068;55.780;37.520;2023-12-07T11:40:43;102131.50;;;-8.27;70.02
61205;BME280;47068;55.780;37.520;2023-12-07T11:43:17;102034.63;;;-8.87;69.44
61205;BME280;47068;55.780;37.520;2023-12-07T11:45:49;102133.31;;;-8.14;70.96
61205;BME280;47068;55.780;37.520;2023-12-07T11:48:16;102136.81;;;-8.09;71.60
61205;BME280;47068;55.780;37.520;2023-12-07T11:51:13;102132.53;;;-8.05;71.14
61205;BME280;47068;55.780;37.520;2023-12-07T11:53:38;102136.88;;;-8.00;70.63
61205;BME280;47068;55.780;37.520;2023-12-07T11:56:05;102137.66;;;-8.08;70.18
61205;BME280;47068;55.780;37.520;2023-12-07T11:58:33;102131.72;;;-8.00;71.34
61205;BME280;47068;55.780;37.520;2023-12-07T12:00:59;102136.88;;;-8.00;69.32
61205;BME280;47068;55.780;37.520;2023-12-07T12:03:28;102141.06;;;-8.17;68.86
61205;BME280;47068;55.780;37.520;2023-12-07T12:05:55;102125.53;;;-8.20;69.42
61205;BME280;47068;55.780;37.520;2023-12-07T12:08:21;102136.84;;;-8.06;70.54
61205;BME280;47068;55.780;37.520;2023-12-07T12:10:48;102138.56;;;-8.05;68.77
61205;BME280;47068;55.780;37.520;2023-12-07T12:13:15;102141.13;;;-8.08;70.40
61205;BME280;47068;55.780;37.520;2023-12-07T12:15:41;102127.31;;;-8.11;69.68
61205;BME280;47068;55.780;37.520;2023-12-07T12:18:07;102131.69;;;-8.01;70.62
61205;BME280;47068;55.780;37.520;2023-12-07T12:20:33;102101.63;;;-7.93;70.82
61205;BME280;47068;55.780;37.520;2023-12-07T12:22:59;102115.63;;;-7.62;70.21
61205;BME280;47068;55.780;37.520;2023-12-07T12:25:29;102119.19;;;-7.37;69.28
61205;BME280;47068;55.780;37.520;2023-12-07T12:28:01;102127.91;;;-7.26;70.34
61205;BME280;47068;55.780;37.520;2023-12-07T12:30:28;102129.56;;;-7.33;67.12
61205;BME280;47068;55.780;37.520;2023-12-07T12:32:55;102124.28;;;-7.52;66.67
61205;BME280;47068;55.780;37.520;2023-12-07T12:35:21;102109.44;;;-7.84;67.31
61205;BME280;47068;55.780;37.520;2023-12-07T12:37:49;102126.66;;;-7.86;68.30
61205;BME280;47068;55.780;37.520;2023-12-07T12:40:19;102126.66;;;-7.86;68.48
61205;BME280;47068;55.780;37.520;2023-12-07T12:42:46;102124.00;;;-7.95;69.03